»·PEaware :: N7436R KNZY-KPMD

N7436R :: KNZY-KPMD

FLIGHT INFORMATION

Flight Status: Arrived
Operator: Privately registered:
United States
More flights under this callsign
Pilot: Matt S. (28717)
Aircraft: BEECH AIRCRAFT SUPER KING AIR COMMUTER
(BE20)
More flights by this aircraft type
Origin: KNZY North Island NAS
United States
Destination: KPMD Palmdale AF Plant 42
United States
More flights between these airports :: More routes between these airports
Route: NASNI9 NASNI MZB V23 DANAH V363 POM V197 PMD
File this flight plan on PilotEdge
Remarks:
Altitude:
(Current/Filed)
10,000ft
Speed:
(Current/Filed)
220kts
Departed: 29-Jan-21 05:14 PM
Arrived: 29-Jan-21 06:02 PM
Distance/Time
Traveled:
124nm/0:47
Distance/Time
To Go:
Arrived

Flight Plot

Page will automatically refresh every two minutes.

Flight plan parsing failed; only flown route is shown


Map Options




Map Legend


Flown Route
Filed Route
Departure Airport
Arrival Airport
Navaid (VOR, NDB)
Fix

Horizontal Profiles

Position Reports

Time Latitude Longitude Heading Altitude Ground
Speed
29-Jan-21 16:51 32.700628 -117.199575 185 31ft 0kts
29-Jan-21 16:52 32.700628 -117.199575 185 31ft 0kts
29-Jan-21 16:54 32.700628 -117.199575 185 31ft 0kts
29-Jan-21 16:55 32.700628 -117.199575 185 31ft 0kts
29-Jan-21 16:56 32.700628 -117.199575 185 31ft 0kts
29-Jan-21 16:57 32.700628 -117.199575 185 31ft 0kts
29-Jan-21 16:58 32.700628 -117.199575 185 31ft 0kts
29-Jan-21 16:59 32.700628 -117.199575 185 31ft 0kts
29-Jan-21 17:00 32.700628 -117.199575 185 31ft 0kts
29-Jan-21 17:01 32.700628 -117.199575 185 31ft 0kts
29-Jan-21 17:02 32.700628 -117.199575 185 31ft 0kts
29-Jan-21 17:03 32.700626 -117.199575 185 31ft 0kts
29-Jan-21 17:04 32.700621 -117.199576 185 31ft 0kts
29-Jan-21 17:05 32.700620 -117.199576 185 31ft 0kts
29-Jan-21 17:05 32.700620 -117.199576 185 31ft 0kts
29-Jan-21 17:07 32.700620 -117.199576 185 31ft 0kts
29-Jan-21 17:07 32.698899 -117.200417 200 31ft 33kts
29-Jan-21 17:09 32.694035 -117.203341 177 31ft 15kts
29-Jan-21 17:09 32.692396 -117.200474 201 31ft 0kts
29-Jan-21 17:11 32.692393 -117.200476 201 31ft 0kts
29-Jan-21 17:11 32.692040 -117.200648 211 31ft 10kts
29-Jan-21 17:12 32.691789 -117.201211 299 31ft 0kts
29-Jan-21 17:13 32.701694 -117.215305 328 483ft 147kts
29-Jan-21 17:14 32.685838 -117.240391 165 2621ft 168kts
29-Jan-21 17:15 32.645260 -117.250146 300 2838ft 190kts
29-Jan-21 17:16 32.693250 -117.265238 343 4353ft 172kts
29-Jan-21 17:17 32.739914 -117.272065 2 5831ft 172kts
29-Jan-21 17:18 32.780880 -117.240392 32 7340ft 178kts
29-Jan-21 17:19 32.814238 -117.237407 326 8471ft 157kts
29-Jan-21 17:20 32.851072 -117.256044 329 9844ft 154kts
29-Jan-21 17:21 32.893316 -117.274626 332 9989ft 167kts
29-Jan-21 17:22 32.945705 -117.297369 334 9982ft 207kts
29-Jan-21 17:23 33.001563 -117.320321 335 9978ft 216kts
29-Jan-21 17:24 33.056376 -117.343853 333 9977ft 219kts
29-Jan-21 17:25 33.114943 -117.368836 335 9971ft 225kts
29-Jan-21 17:26 33.174249 -117.393080 334 9970ft 225kts
29-Jan-21 17:27 33.231372 -117.419204 323 9973ft 222kts
29-Jan-21 17:28 33.277853 -117.466756 312 9975ft 219kts
29-Jan-21 17:29 33.321152 -117.516231 309 9979ft 219kts
29-Jan-21 17:30 33.363582 -117.568172 311 9979ft 219kts
29-Jan-21 17:31 33.405049 -117.616611 312 10036ft 217kts
29-Jan-21 17:32 33.435413 -117.651350 312 9988ft 222kts
29-Jan-21 17:33 33.483435 -117.696657 332 9981ft 228kts
29-Jan-21 17:34 33.544917 -117.714688 346 9980ft 232kts
29-Jan-21 17:35 33.606610 -117.725053 348 9981ft 233kts
29-Jan-21 17:36 33.663056 -117.733494 342 9984ft 232kts
29-Jan-21 17:37 33.716655 -117.755436 335 9988ft 230kts
29-Jan-21 17:38 33.773049 -117.779185 340 9980ft 232kts
29-Jan-21 17:39 33.794871 -117.784259 348 9986ft 234kts
29-Jan-21 17:40 33.856718 -117.787308 353 9982ft 238kts
29-Jan-21 17:41 33.923124 -117.788415 354 9986ft 238kts
29-Jan-21 17:42 33.987198 -117.789518 354 9981ft 239kts
29-Jan-21 17:43 34.052565 -117.791385 357 9983ft 239kts
29-Jan-21 17:44 34.115186 -117.812664 334 9980ft 233kts
29-Jan-21 17:45 34.175709 -117.840843 336 9979ft 233kts
29-Jan-21 17:46 34.234565 -117.873265 331 9977ft 232kts
29-Jan-21 17:47 34.293867 -117.904570 333 9972ft 233kts
29-Jan-21 17:48 34.353808 -117.934827 333 9961ft 233kts
29-Jan-21 17:49 34.413607 -117.964618 333 10017ft 231kts
29-Jan-21 17:50 34.473440 -117.994217 334 10015ft 232kts
29-Jan-21 17:51 34.533492 -118.023597 335 9972ft 233kts
29-Jan-21 17:52 34.590167 -118.047462 357 8464ft 208kts
29-Jan-21 17:53 34.619937 -117.997644 75 6979ft 182kts
29-Jan-21 17:54 34.624775 -117.935817 92 6012ft 170kts
29-Jan-21 17:55 34.633669 -117.882247 23 5998ft 176kts
29-Jan-21 17:56 34.653216 -117.918177 247 5910ft 174kts
29-Jan-21 17:57 34.641618 -117.968314 254 5484ft 112kts
29-Jan-21 17:58 34.636427 -118.002634 262 4456ft 108kts
29-Jan-21 17:59 34.635377 -118.034958 260 3767ft 100kts
29-Jan-21 18:00 34.633077 -118.067492 259 2768ft 86kts
29-Jan-21 18:01 34.632122 -118.088973 339 2548ft 19kts
29-Jan-21 18:02 34.634671 -118.088335 133 2548ft 0kts
29-Jan-21 18:03 34.634590 -118.088232 133 2548ft 0kts
29-Jan-21 18:04 34.634589 -118.088231 133 2548ft 0kts

Navigation Log

Ident Type
Flight plan parsing failed, navigation log unavailable